createdAt,value
2023-05-22T00:00:03.008Z,41.39
2023-05-22T00:01:02.984Z,42.52
2023-05-22T00:02:03.056Z,42.25
2023-05-22T00:03:03.171Z,44.85
2023-05-22T00:04:03.148Z,41.99
2023-05-22T00:05:03.225Z,43.08
2023-05-22T00:06:03.240Z,43.43
2023-05-22T00:07:03.292Z,42.72
2023-05-22T00:08:03.431Z,43.04
2023-05-22T00:09:03.444Z,43.05
2023-05-22T00:10:03.516Z,42.41
2023-05-22T00:11:03.592Z,40.13
2023-05-22T00:12:03.588Z,41.72
2023-05-22T00:13:03.713Z,42.12
2023-05-22T00:14:03.759Z,43.76
2023-05-22T00:15:03.845Z,42.06
2023-05-22T00:16:03.891Z,43.26
2023-05-22T00:17:03.944Z,45.04
2023-05-22T00:18:04.078Z,43.28
2023-05-22T00:19:04.080Z,44.69
2023-05-22T00:20:04.140Z,41.53
2023-05-22T00:21:04.138Z,43.36
2023-05-22T00:22:04.239Z,41.70
2023-05-22T00:23:04.244Z,42.56
2023-05-22T00:24:04.372Z,42.52
2023-05-22T00:25:04.402Z,42.85
2023-05-22T00:26:04.473Z,42.18
2023-05-22T00:27:04.514Z,41.91
2023-05-22T00:28:04.586Z,42.56
2023-05-22T00:29:04.643Z,40.48
2023-05-22T00:30:04.707Z,42.08
2023-05-22T00:31:04.748Z,42.15
2023-05-22T00:32:04.822Z,41.19
2023-05-22T00:33:04.921Z,41.71
2023-05-22T00:34:04.969Z,40.56
2023-05-22T00:35:04.972Z,42.20
2023-05-22T00:36:05.053Z,46.43
2023-05-22T00:37:05.112Z,43.23
2023-05-22T00:38:05.171Z,42.46
2023-05-22T00:39:05.228Z,40.77
2023-05-22T00:40:05.277Z,41.23
2023-05-22T00:41:05.353Z,39.28
2023-05-22T00:42:05.439Z,42.34
2023-05-22T00:43:05.508Z,42.75
2023-05-22T00:44:05.555Z,43.36
2023-05-22T00:45:05.581Z,41.16
2023-05-22T00:46:05.693Z,39.99
2023-05-22T00:47:05.759Z,41.32
2023-05-22T00:48:05.815Z,44.08
2023-05-22T00:49:05.865Z,42.07
2023-05-22T00:50:05.869Z,42.73
2023-05-22T00:51:05.968Z,41.09
2023-05-22T00:52:06.018Z,40.43
2023-05-22T00:53:06.041Z,41.37
2023-05-22T00:54:06.099Z,41.52
2023-05-22T00:55:06.211Z,42.96
2023-05-22T00:56:06.261Z,40.75
2023-05-22T00:57:06.323Z,40.07
2023-05-22T00:58:06.356Z,40.66
2023-05-22T00:59:06.380Z,39.85
2023-05-22T01:00:06.503Z,41.57
2023-05-22T01:01:06.561Z,39.78
2023-05-22T01:02:06.705Z,39.64
2023-05-22T01:03:06.670Z,42.23
2023-05-22T01:04:06.787Z,38.81
2023-05-22T01:05:06.789Z,42.08
2023-05-22T01:06:06.834Z,40.83
2023-05-22T01:07:06.913Z,42.44
2023-05-22T01:08:06.940Z,45.26
2023-05-22T01:09:07.046Z,40.97
2023-05-22T01:10:07.027Z,41.45
2023-05-22T01:11:07.093Z,41.96
2023-05-22T01:12:07.144Z,41.34
2023-05-22T01:13:07.189Z,39.90
2023-05-22T01:14:07.265Z,40.35
2023-05-22T01:15:07.261Z,43.89
2023-05-22T01:16:07.430Z,42.35
2023-05-22T01:17:07.378Z,39.24
2023-05-22T01:18:07.466Z,42.12
2023-05-22T01:19:07.598Z,41.24
2023-05-22T01:20:07.597Z,41.73
2023-05-22T01:21:07.649Z,39.93
2023-05-22T01:22:07.653Z,42.02
2023-05-22T01:23:07.732Z,43.11
2023-05-22T01:24:07.736Z,40.88
2023-05-22T01:25:07.784Z,39.40
2023-05-22T01:26:07.852Z,41.39
2023-05-22T01:27:07.852Z,40.03
2023-05-22T01:28:07.979Z,39.56
2023-05-22T01:29:08.014Z,41.64
2023-05-22T01:30:08.075Z,41.22
2023-05-22T01:31:08.133Z,40.80
2023-05-22T01:32:08.187Z,42.57
2023-05-22T01:33:08.367Z,44.58
2023-05-22T01:34:08.276Z,44.46
2023-05-22T01:35:08.262Z,43.14
2023-05-22T01:36:08.384Z,39.77
2023-05-22T01:37:08.384Z,43.60
2023-05-22T01:38:08.396Z,40.11
2023-05-22T01:39:08.457Z,43.20
2023-05-22T01:40:08.493Z,42.82
2023-05-22T01:41:08.678Z,39.03
2023-05-22T01:42:08.890Z,43.67
2023-05-22T01:43:08.797Z,41.20
2023-05-22T01:44:08.648Z,40.87
2023-05-22T01:45:08.710Z,42.55
2023-05-22T01:46:08.813Z,39.34
2023-05-22T01:47:08.820Z,41.36
2023-05-22T01:48:09.008Z,44.12
2023-05-22T01:49:08.918Z,39.15
2023-05-22T01:50:08.993Z,38.56
2023-05-22T01:51:09.059Z,41.78
2023-05-22T01:52:09.096Z,41.82
2023-05-22T01:53:09.132Z,40.92
2023-05-22T01:54:09.114Z,39.81
2023-05-22T01:55:09.139Z,41.21
2023-05-22T01:56:09.117Z,38.79
2023-05-22T01:57:09.195Z,40.00
2023-05-22T01:58:09.199Z,38.52
2023-05-22T01:59:09.209Z,40.14
2023-05-22T02:00:09.258Z,39.70
2023-05-22T02:01:09.318Z,37.53
2023-05-22T02:02:09.307Z,39.74
2023-05-22T02:03:09.384Z,39.56
2023-05-22T02:04:09.303Z,38.94
2023-05-22T02:05:09.354Z,38.83
2023-05-22T02:06:09.350Z,39.90
2023-05-22T02:07:11.999Z,38.87
2023-05-22T02:08:09.374Z,42.79
2023-05-22T02:09:09.379Z,39.65
2023-05-22T02:10:09.328Z,39.99
2023-05-22T02:11:09.344Z,37.55
2023-05-22T02:12:09.349Z,37.79
2023-05-22T02:13:09.341Z,39.45
2023-05-22T02:14:09.298Z,42.02
2023-05-22T02:15:09.314Z,42.24
2023-05-22T02:16:09.389Z,41.65
2023-05-22T02:17:09.282Z,41.01
2023-05-22T02:18:09.315Z,38.91
2023-05-22T02:19:09.318Z,41.97
2023-05-22T02:20:09.261Z,42.22
2023-05-22T02:21:09.306Z,41.45
2023-05-22T02:22:09.258Z,41.52
2023-05-22T02:23:09.277Z,40.85
2023-05-22T02:24:09.258Z,40.22
2023-05-22T02:25:09.241Z,40.05
2023-05-22T02:26:09.224Z,38.90
2023-05-22T02:27:09.211Z,39.77
2023-05-22T02:28:09.210Z,37.79
2023-05-22T02:29:09.199Z,39.09
2023-05-22T02:30:09.211Z,38.79
2023-05-22T02:31:09.209Z,38.57
2023-05-22T02:32:09.214Z,42.06
2023-05-22T02:33:09.203Z,39.94
2023-05-22T02:34:09.247Z,38.46
2023-05-22T02:35:09.172Z,39.62
2023-05-22T02:36:09.163Z,39.52
2023-05-22T02:37:09.164Z,41.29
2023-05-22T02:38:09.168Z,40.30
2023-05-22T02:39:09.133Z,38.10
2023-05-22T02:40:09.114Z,37.63
2023-05-22T02:41:09.110Z,40.40
2023-05-22T02:42:09.098Z,41.81
2023-05-22T02:43:09.081Z,42.89
2023-05-22T02:44:09.122Z,40.04
2023-05-22T02:45:09.112Z,40.64
2023-05-22T02:46:09.121Z,40.97
2023-05-22T02:47:09.049Z,41.27
2023-05-22T02:48:09.137Z,39.24
2023-05-22T02:49:09.010Z,39.40
2023-05-22T02:50:09.048Z,40.92
2023-05-22T02:51:09.028Z,36.92
2023-05-22T02:52:09.034Z,42.42
2023-05-22T02:53:09.046Z,42.86
2023-05-22T02:54:09.018Z,39.45
2023-05-22T02:55:09.033Z,41.06
2023-05-22T02:56:09.021Z,38.60
2023-05-22T02:57:08.989Z,39.82
2023-05-22T02:58:08.977Z,39.81
2023-05-22T02:59:08.964Z,41.37
2023-05-22T03:00:08.959Z,40.83
2023-05-22T03:01:08.977Z,40.30
2023-05-22T03:02:09.024Z,41.60
2023-05-22T03:03:09.050Z,41.25
2023-05-22T03:04:09.118Z,38.92
2023-05-22T03:05:08.952Z,36.57
2023-05-22T03:06:09.026Z,40.01
2023-05-22T03:07:08.912Z,40.86
2023-05-22T03:08:08.915Z,38.57
2023-05-22T03:09:08.911Z,41.02
2023-05-22T03:10:08.929Z,39.63
2023-05-22T03:11:08.861Z,40.10
2023-05-22T03:12:08.856Z,38.12
2023-05-22T03:13:08.897Z,40.15
2023-05-22T03:14:08.850Z,41.90
2023-05-22T03:15:08.909Z,43.05
2023-05-22T03:16:08.882Z,41.79
2023-05-22T03:17:08.866Z,39.95
2023-05-22T03:18:08.845Z,41.26
2023-05-22T03:19:08.900Z,37.08
2023-05-22T03:20:08.969Z,40.69
2023-05-22T03:21:08.799Z,41.64
2023-05-22T03:22:08.861Z,39.10
2023-05-22T03:23:08.800Z,39.24
2023-05-22T03:24:08.791Z,39.64
2023-05-22T03:25:08.778Z,38.14
2023-05-22T03:26:08.787Z,39.92
2023-05-22T03:27:08.764Z,38.32
2023-05-22T03:28:08.790Z,40.23
2023-05-22T03:29:08.827Z,38.40
2023-05-22T03:30:08.757Z,43.24
2023-05-22T03:31:08.774Z,40.91
2023-05-22T03:32:08.765Z,43.30
2023-05-22T03:33:08.848Z,40.01
2023-05-22T03:34:08.865Z,40.73
2023-05-22T03:35:08.796Z,38.74
2023-05-22T03:36:08.746Z,38.88
2023-05-22T03:37:08.808Z,39.57
2023-05-22T03:38:08.749Z,39.44
2023-05-22T03:39:08.737Z,39.10
2023-05-22T03:40:08.788Z,40.18
2023-05-22T03:41:08.785Z,39.74
2023-05-22T03:42:08.779Z,40.45
2023-05-22T03:43:08.766Z,38.54
2023-05-22T03:44:08.747Z,43.67
2023-05-22T03:45:08.792Z,40.03
2023-05-22T03:46:08.792Z,39.54
2023-05-22T03:47:08.768Z,39.21
2023-05-22T03:48:08.877Z,38.02
2023-05-22T03:49:08.774Z,41.02
2023-05-22T03:50:08.766Z,38.52
2023-05-22T03:51:08.771Z,40.07
2023-05-22T03:52:08.728Z,38.12
2023-05-22T03:53:08.765Z,38.83
2023-05-22T03:54:08.775Z,41.20
2023-05-22T03:55:08.774Z,40.93
2023-05-22T03:56:08.788Z,38.24
2023-05-22T03:57:08.748Z,40.43
2023-05-22T03:58:08.774Z,40.88
2023-05-22T03:59:08.747Z,38.61
2023-05-22T04:00:08.757Z,36.23
2023-05-22T04:01:08.769Z,40.77
2023-05-22T04:02:08.828Z,39.85
2023-05-22T04:03:08.884Z,36.30
2023-05-22T04:04:08.788Z,39.95
2023-05-22T04:05:08.869Z,39.54
2023-05-22T04:06:08.801Z,35.87
2023-05-22T04:07:08.812Z,38.45
2023-05-22T04:08:08.769Z,38.98
2023-05-22T04:09:08.823Z,36.26
2023-05-22T04:10:08.776Z,34.74
2023-05-22T04:11:08.784Z,34.51
2023-05-22T04:12:08.765Z,35.70
2023-05-22T04:13:08.791Z,33.64
2023-05-22T04:14:08.773Z,31.22
2023-05-22T04:15:08.828Z,30.47
2023-05-22T04:16:08.866Z,33.22
2023-05-22T04:17:08.881Z,28.61
2023-05-22T04:18:08.806Z,31.64
2023-05-22T04:19:08.834Z,29.47
2023-05-22T04:20:08.807Z,27.52
2023-05-22T04:21:08.792Z,28.44
2023-05-22T04:22:08.800Z,26.51
2023-05-22T04:23:08.819Z,29.00
2023-05-22T04:24:08.812Z,27.13
2023-05-22T04:25:08.828Z,27.40
2023-05-22T04:26:08.886Z,25.80
2023-05-22T04:27:08.837Z,25.31
2023-05-22T04:28:08.823Z,25.00
2023-05-22T04:29:08.822Z,27.91
2023-05-22T04:30:08.872Z,27.62
2023-05-22T04:31:08.855Z,29.59
2023-05-22T04:32:08.885Z,29.01
2023-05-22T04:33:09.022Z,30.04
2023-05-22T04:34:08.883Z,28.64
2023-05-22T04:35:08.912Z,32.49
2023-05-22T04:36:11.533Z,25.10
2023-05-22T04:37:08.868Z,31.81
2023-05-22T04:38:08.840Z,31.11
2023-05-22T04:39:08.843Z,29.22
2023-05-22T04:40:08.812Z,34.80
2023-05-22T04:41:08.872Z,33.53
2023-05-22T04:42:08.836Z,29.76
2023-05-22T04:43:08.810Z,27.48
2023-05-22T04:44:08.771Z,29.12
2023-05-22T04:45:08.812Z,28.93
2023-05-22T04:46:08.915Z,30.33
2023-05-22T04:47:08.821Z,28.54
2023-05-22T04:48:08.878Z,29.50
2023-05-22T04:49:08.841Z,27.28
2023-05-22T04:50:08.770Z,27.36
2023-05-22T04:51:08.792Z,30.06
2023-05-22T04:52:08.754Z,29.13
2023-05-22T04:53:08.773Z,29.17
2023-05-22T04:54:08.774Z,29.89
2023-05-22T04:55:08.762Z,31.36
2023-05-22T04:56:08.740Z,30.46
2023-05-22T04:57:08.744Z,29.07
2023-05-22T04:58:08.712Z,31.06
2023-05-22T04:59:08.715Z,29.87
2023-05-22T05:00:08.740Z,32.63
2023-05-22T05:01:08.828Z,26.67
2023-05-22T05:02:08.698Z,31.21
2023-05-22T05:03:08.788Z,28.65
2023-05-22T05:04:08.852Z,25.70
2023-05-22T05:05:08.656Z,26.44
2023-05-22T05:06:08.702Z,27.70
2023-05-22T05:07:08.648Z,29.95
2023-05-22T05:08:08.627Z,27.20
2023-05-22T05:09:08.672Z,28.83
2023-05-22T05:10:08.611Z,26.63
2023-05-22T05:11:08.620Z,29.07
2023-05-22T05:12:08.636Z,26.02
2023-05-22T05:13:08.635Z,26.65
2023-05-22T05:14:08.777Z,27.77
2023-05-22T05:15:08.579Z,29.04
2023-05-22T05:16:08.678Z,26.84
2023-05-22T05:17:08.556Z,27.92
2023-05-22T05:18:08.587Z,26.63
2023-05-22T05:19:08.635Z,25.00
2023-05-22T05:20:08.582Z,25.83
2023-05-22T05:21:08.565Z,25.50
2023-05-22T05:22:08.530Z,26.53
2023-05-22T05:23:08.502Z,25.95
2023-05-22T05:24:08.570Z,29.24
2023-05-22T05:25:09.581Z,28.49
2023-05-22T05:26:08.491Z,28.62
2023-05-22T05:27:08.546Z,28.85
2023-05-22T05:28:08.542Z,28.57
2023-05-22T05:29:08.568Z,27.18
2023-05-22T05:30:08.502Z,29.84
2023-05-22T05:31:08.506Z,29.16
2023-05-22T05:32:08.608Z,26.75
2023-05-22T05:33:08.632Z,25.00
2023-05-22T05:34:08.469Z,25.00
2023-05-22T05:35:08.492Z,25.00
2023-05-22T05:36:08.469Z,25.00
2023-05-22T05:37:08.452Z,24.47
2023-05-22T05:38:08.449Z,26.87
2023-05-22T05:39:08.469Z,27.13
2023-05-22T05:40:08.489Z,25.00
2023-05-22T05:41:08.446Z,26.53
2023-05-22T05:42:08.456Z,25.61
2023-05-22T05:43:09.198Z,25.40
2023-05-22T05:44:08.409Z,25.00
2023-05-22T05:45:08.427Z,26.50
2023-05-22T05:46:08.475Z,26.15
2023-05-22T05:47:08.390Z,34.34
2023-05-22T05:48:08.451Z,31.91
2023-05-22T05:49:08.378Z,25.36
2023-05-22T05:50:08.348Z,30.32
2023-05-22T05:51:08.356Z,26.62
2023-05-22T05:52:08.462Z,29.91
2023-05-22T05:53:08.466Z,33.66
2023-05-22T05:54:08.353Z,30.06
2023-05-22T05:55:08.327Z,36.22
2023-05-22T05:56:08.376Z,37.55
2023-05-22T05:57:08.328Z,36.95
2023-05-22T05:58:08.307Z,37.05
2023-05-22T05:59:08.368Z,36.96
2023-05-22T06:00:08.324Z,38.87
2023-05-22T06:01:08.433Z,37.98
2023-05-22T06:02:08.313Z,39.53
2023-05-22T06:03:08.309Z,40.90
2023-05-22T06:04:08.236Z,39.46
2023-05-22T06:05:08.363Z,43.33
2023-05-22T06:06:08.236Z,46.02
2023-05-22T06:07:08.233Z,45.61
2023-05-22T06:08:08.275Z,50.13
2023-05-22T06:09:08.239Z,56.21
2023-05-22T06:10:08.225Z,55.45
2023-05-22T06:11:08.218Z,58.89
2023-05-22T06:12:08.289Z,58.99
2023-05-22T06:13:08.209Z,63.96
2023-05-22T06:14:08.194Z,66.50
2023-05-22T06:15:08.201Z,69.43
2023-05-22T06:16:08.193Z,73.78
2023-05-22T06:17:08.191Z,74.85
2023-05-22T06:18:08.354Z,77.25
2023-05-22T06:19:08.247Z,81.25
2023-05-22T06:20:08.201Z,83.53
2023-05-22T06:21:08.210Z,83.57
2023-05-22T06:22:08.150Z,83.21
2023-05-22T06:23:08.135Z,88.59
2023-05-22T06:24:08.154Z,88.29
2023-05-22T06:25:08.163Z,90.66
2023-05-22T06:26:08.164Z,92.30
2023-05-22T06:27:08.074Z,90.55
2023-05-22T06:28:08.160Z,92.27
2023-05-22T06:29:08.270Z,91.15
2023-05-22T06:30:08.099Z,82.58
2023-05-22T06:31:08.126Z,79.33
2023-05-22T06:32:08.164Z,73.76
2023-05-22T06:33:08.265Z,69.12
2023-05-22T06:34:08.235Z,61.64
2023-05-22T06:35:08.144Z,66.28
2023-05-22T06:36:08.301Z,63.64
2023-05-22T06:37:08.116Z,50.55
2023-05-22T06:38:08.103Z,42.15
2023-05-22T06:39:08.149Z,40.50
2023-05-22T06:40:08.216Z,37.29
2023-05-22T06:41:08.174Z,34.52
2023-05-22T06:42:08.184Z,32.09
2023-05-22T06:43:08.239Z,27.72
2023-05-22T06:44:08.209Z,25.00
2023-05-22T06:45:08.306Z,29.89
2023-05-22T06:46:08.420Z,27.27
2023-05-22T06:47:08.443Z,25.00
2023-05-22T06:48:09.032Z,25.48
2023-05-22T06:49:08.434Z,24.38
2023-05-22T06:50:08.421Z,27.15
2023-05-22T06:51:08.498Z,25.81
2023-05-22T06:52:08.564Z,25.82
2023-05-22T06:53:08.559Z,34.84
2023-05-22T06:54:09.413Z,33.98
2023-05-22T06:55:08.663Z,34.13
2023-05-22T06:56:08.655Z,35.28
2023-05-22T06:57:08.696Z,30.28
2023-05-22T06:58:08.811Z,36.30
2023-05-22T06:59:08.721Z,33.86
2023-05-22T07:00:08.742Z,36.85
2023-05-22T07:01:08.768Z,39.76
2023-05-22T07:02:08.806Z,35.38
2023-05-22T07:03:08.859Z,37.43
2023-05-22T07:04:08.749Z,39.73
2023-05-22T07:05:08.758Z,38.61
2023-05-22T07:06:08.853Z,40.95
2023-05-22T07:07:08.835Z,41.13
2023-05-22T07:08:08.951Z,43.62
2023-05-22T07:09:08.890Z,45.89
2023-05-22T07:10:08.950Z,49.71
2023-05-22T07:11:09.029Z,54.36
2023-05-22T07:12:09.122Z,55.05
2023-05-22T07:13:09.104Z,55.72
2023-05-22T07:14:09.134Z,54.73
2023-05-22T07:15:09.237Z,61.65
2023-05-22T07:16:09.289Z,59.20
2023-05-22T07:17:09.316Z,67.07
2023-05-22T07:18:09.546Z,63.91
2023-05-22T07:19:09.482Z,67.63
2023-05-22T07:20:09.553Z,60.20
2023-05-22T07:21:10.323Z,63.05
2023-05-22T07:22:09.635Z,61.06
2023-05-22T07:23:09.691Z,64.69
2023-05-22T07:24:09.789Z,60.99
2023-05-22T07:25:09.889Z,65.12
2023-05-22T07:26:09.908Z,57.35
2023-05-22T07:27:09.923Z,56.84
2023-05-22T07:28:09.892Z,44.54
2023-05-22T07:29:10.436Z,50.51
2023-05-22T07:30:10.373Z,55.12
2023-05-22T07:31:10.333Z,42.40
2023-05-22T07:32:10.057Z,39.52
2023-05-22T07:33:10.398Z,34.75
2023-05-22T07:34:10.070Z,34.79
2023-05-22T07:35:10.309Z,32.14
2023-05-22T07:36:10.082Z,35.42
2023-05-22T07:37:10.093Z,41.27
2023-05-22T07:38:10.130Z,46.99
2023-05-22T07:39:10.181Z,50.66
2023-05-22T07:40:10.235Z,53.44
2023-05-22T07:41:10.349Z,55.02
2023-05-22T07:42:10.345Z,58.61
2023-05-22T07:43:10.410Z,63.49
2023-05-22T07:44:10.437Z,65.80
2023-05-22T07:45:10.518Z,70.74
2023-05-22T07:46:10.636Z,75.98
2023-05-22T07:47:10.689Z,76.88
2023-05-22T07:48:10.751Z,79.82
2023-05-22T07:49:10.787Z,82.74
2023-05-22T07:50:10.791Z,78.92
2023-05-22T07:51:10.979Z,87.75
2023-05-22T07:52:10.907Z,97.38
2023-05-22T07:53:11.020Z,105.08
2023-05-22T07:54:10.969Z,100.68
2023-05-22T07:55:11.028Z,104.22
2023-05-22T07:56:11.073Z,100.27
2023-05-22T07:57:11.157Z,103.25
2023-05-22T07:58:11.182Z,104.46
2023-05-22T07:59:11.238Z,109.91
2023-05-22T08:00:12.264Z,101.84
2023-05-22T08:01:11.322Z,106.28
2023-05-22T08:02:11.369Z,108.43
2023-05-22T08:03:11.552Z,107.58
2023-05-22T08:04:12.013Z,109.78
2023-05-22T08:05:12.035Z,104.25
2023-05-22T08:06:11.568Z,98.11
2023-05-22T08:07:11.552Z,102.23
2023-05-22T08:08:11.649Z,105.51
2023-05-22T08:09:11.744Z,106.31
2023-05-22T08:10:11.744Z,100.68
2023-05-22T08:11:11.769Z,101.76
2023-05-22T08:12:11.791Z,101.32
2023-05-22T08:13:11.869Z,101.45
2023-05-22T08:14:12.391Z,99.39
2023-05-22T08:15:11.953Z,101.65
2023-05-22T08:16:11.981Z,95.68
2023-05-22T08:17:12.095Z,97.60
2023-05-22T08:18:12.117Z,92.15
2023-05-22T08:19:12.204Z,95.81
2023-05-22T08:20:12.273Z,92.64
2023-05-22T08:21:12.129Z,92.84
2023-05-22T08:22:12.204Z,91.58
2023-05-22T08:23:12.168Z,82.37
2023-05-22T08:24:12.248Z,78.05
2023-05-22T08:25:12.484Z,85.00
2023-05-22T08:26:12.294Z,86.37
2023-05-22T08:27:12.304Z,86.06
2023-05-22T08:28:12.397Z,85.90
2023-05-22T08:29:12.398Z,87.61
2023-05-22T08:30:12.878Z,84.58
2023-05-22T08:31:12.568Z,86.51
2023-05-22T08:32:12.728Z,86.92
2023-05-22T08:33:12.631Z,92.44
2023-05-22T08:34:12.726Z,92.72
2023-05-22T08:35:12.842Z,90.07
2023-05-22T08:36:12.773Z,83.92
2023-05-22T08:37:13.778Z,77.51
2023-05-22T08:38:12.878Z,75.62
2023-05-22T08:39:12.974Z,76.88
2023-05-22T08:40:13.067Z,54.71
2023-05-22T08:41:13.776Z,46.35
2023-05-22T08:42:13.105Z,34.25
2023-05-22T08:43:13.173Z,45.37
2023-05-22T08:44:13.793Z,36.83
2023-05-22T08:45:13.318Z,37.80
2023-05-22T08:46:13.325Z,45.48
2023-05-22T08:47:13.505Z,41.02
2023-05-22T08:48:14.041Z,45.08
2023-05-22T08:49:13.454Z,47.94
2023-05-22T08:50:13.478Z,50.53
2023-05-22T08:51:13.562Z,59.46
2023-05-22T08:52:13.602Z,62.11
2023-05-22T08:53:13.564Z,60.02
2023-05-22T08:54:13.601Z,65.47
2023-05-22T08:55:13.609Z,61.71
2023-05-22T08:56:13.624Z,66.20
2023-05-22T08:57:13.681Z,70.15
2023-05-22T08:58:13.884Z,79.31
2023-05-22T08:59:13.686Z,80.89
2023-05-22T09:00:13.719Z,81.18
2023-05-22T09:01:13.833Z,86.09
2023-05-22T09:02:13.709Z,89.39
2023-05-22T09:03:14.108Z,83.29
2023-05-22T09:04:14.352Z,53.95
2023-05-22T09:05:13.785Z,70.46
2023-05-22T09:06:13.843Z,62.05
2023-05-22T09:07:13.897Z,50.25
2023-05-22T09:08:20.352Z,60.67
2023-05-22T09:09:14.929Z,61.34
2023-05-22T09:10:13.877Z,61.14
2023-05-22T09:11:13.907Z,54.47
2023-05-22T09:12:13.847Z,41.08
2023-05-22T09:13:13.845Z,47.58
2023-05-22T09:14:13.855Z,48.34
2023-05-22T09:15:13.879Z,50.32
2023-05-22T09:16:13.830Z,45.97
2023-05-22T09:17:13.912Z,51.70
2023-05-22T09:18:13.885Z,56.72
2023-05-22T09:19:13.929Z,63.13
2023-05-22T09:20:15.397Z,69.95
2023-05-22T09:21:25.551Z,84.02
2023-05-22T09:22:14.914Z,84.61
2023-05-22T09:23:13.750Z,86.03
2023-05-22T09:24:13.769Z,88.46
2023-05-22T09:25:13.814Z,93.80
2023-05-22T09:26:13.737Z,99.01
2023-05-22T09:27:14.395Z,104.97
2023-05-22T09:28:13.826Z,113.81
2023-05-22T09:29:14.310Z,112.94
2023-05-22T09:30:13.927Z,113.71
2023-05-22T09:31:13.870Z,125.48
2023-05-22T09:32:13.757Z,134.15
2023-05-22T09:33:13.862Z,140.01
2023-05-22T09:34:13.876Z,137.67
2023-05-22T09:35:13.912Z,131.65
2023-05-22T09:36:13.984Z,125.79
2023-05-22T09:37:14.011Z,116.91
2023-05-22T09:38:14.092Z,113.68
2023-05-22T09:39:14.141Z,93.93
2023-05-22T09:40:14.421Z,88.86
2023-05-22T09:41:14.247Z,74.17
2023-05-22T09:42:14.257Z,18.51
2023-05-22T09:43:14.273Z,11.37
2023-05-22T09:44:14.336Z,45.45
2023-05-22T09:45:14.346Z,15.02
2023-05-22T09:46:14.392Z,0.00
2023-05-22T09:47:14.297Z,32.28
2023-05-22T09:48:14.264Z,67.26
2023-05-22T09:49:16.498Z,80.24
2023-05-22T09:50:14.276Z,93.84
2023-05-22T09:51:14.298Z,107.55
2023-05-22T09:52:14.286Z,89.09
2023-05-22T09:53:14.964Z,84.54
2023-05-22T09:54:14.298Z,101.33
2023-05-22T09:55:14.312Z,112.60
2023-05-22T09:56:15.936Z,117.26
2023-05-22T09:57:15.238Z,117.44
2023-05-22T09:58:14.254Z,117.62
2023-05-22T09:59:14.855Z,122.48
2023-05-22T10:00:14.464Z,126.58
2023-05-22T10:01:14.334Z,135.90
2023-05-22T10:02:14.940Z,140.28
2023-05-22T10:03:14.187Z,142.14
2023-05-22T10:04:14.422Z,145.78
2023-05-22T10:05:14.210Z,146.42
2023-05-22T10:06:14.185Z,147.49
2023-05-22T10:07:14.205Z,149.00
2023-05-22T10:08:14.206Z,155.34
2023-05-22T10:09:14.142Z,154.46
2023-05-22T10:10:14.190Z,159.28
2023-05-22T10:11:14.268Z,158.55
2023-05-22T10:12:14.264Z,164.14
2023-05-22T10:13:14.338Z,168.64
2023-05-22T10:14:14.380Z,166.79
2023-05-22T10:15:14.444Z,170.82
2023-05-22T10:16:14.588Z,169.79
2023-05-22T10:17:14.576Z,174.77
2023-05-22T10:18:14.573Z,177.83
2023-05-22T10:19:14.648Z,175.64
2023-05-22T10:20:14.970Z,175.79
2023-05-22T10:21:14.737Z,178.76
2023-05-22T10:22:14.790Z,179.74
2023-05-22T10:23:14.802Z,180.62
2023-05-22T10:24:14.969Z,172.86
2023-05-22T10:25:16.344Z,171.14
2023-05-22T10:26:14.993Z,175.53
2023-05-22T10:27:15.091Z,178.40
2023-05-22T10:28:15.080Z,176.79
2023-05-22T10:29:15.083Z,173.99
2023-05-22T10:30:15.494Z,159.76
2023-05-22T10:31:15.402Z,140.16
2023-05-22T10:32:15.304Z,111.60
2023-05-22T10:33:15.452Z,125.98
2023-05-22T10:34:15.377Z,90.56
2023-05-22T10:35:15.446Z,54.79
2023-05-22T10:36:15.547Z,75.07
2023-05-22T10:37:18.472Z,103.81
2023-05-22T10:38:15.462Z,104.27
2023-05-22T10:39:15.453Z,106.52
2023-05-22T10:40:15.554Z,112.80
2023-05-22T10:41:15.420Z,127.07
2023-05-22T10:42:15.494Z,143.55
2023-05-22T10:43:15.459Z,148.84
2023-05-22T10:44:15.473Z,150.68
2023-05-22T10:45:15.398Z,152.94
2023-05-22T10:46:15.526Z,159.08
2023-05-22T10:47:15.520Z,165.50
2023-05-22T10:48:15.569Z,166.20
2023-05-22T10:49:15.619Z,168.59
2023-05-22T10:50:15.700Z,178.11
2023-05-22T10:51:15.713Z,178.42
2023-05-22T10:52:15.752Z,174.15
2023-05-22T10:53:15.837Z,183.10
2023-05-22T10:54:15.875Z,184.28
2023-05-22T10:55:15.991Z,188.43
2023-05-22T10:56:16.110Z,189.97
2023-05-22T10:57:16.042Z,192.54
2023-05-22T10:58:16.185Z,194.02
2023-05-22T10:59:16.217Z,197.16
2023-05-22T11:00:16.292Z,198.71
2023-05-22T11:01:16.400Z,199.70
2023-05-22T11:02:16.428Z,199.04
2023-05-22T11:03:18.255Z,201.58
2023-05-22T11:04:16.588Z,200.66
2023-05-22T11:05:16.582Z,201.52
2023-05-22T11:06:16.689Z,202.44
2023-05-22T11:07:16.838Z,200.28
2023-05-22T11:08:18.914Z,199.82
2023-05-22T11:09:16.787Z,202.71
2023-05-22T11:10:16.775Z,199.82
2023-05-22T11:11:17.090Z,199.07
2023-05-22T11:12:17.203Z,196.00
2023-05-22T11:13:16.794Z,199.74
2023-05-22T11:14:17.355Z,197.25
2023-05-22T11:15:16.703Z,200.10
2023-05-22T11:16:16.778Z,197.89
2023-05-22T11:17:16.814Z,188.81
2023-05-22T11:18:16.799Z,182.82
2023-05-22T11:20:16.788Z,180.83
2023-05-22T11:21:16.695Z,183.89
2023-05-22T11:22:17.370Z,189.41
2023-05-22T11:23:16.703Z,191.37
2023-05-22T11:24:16.680Z,179.56
2023-05-22T11:25:16.729Z,186.78
2023-05-22T11:26:16.681Z,202.53
2023-05-22T11:27:16.665Z,205.60
2023-05-22T11:28:16.741Z,211.42
2023-05-22T11:29:16.637Z,213.77
2023-05-22T11:30:16.768Z,210.92
2023-05-22T11:31:16.721Z,210.50
2023-05-22T11:32:16.596Z,209.27
2023-05-22T11:33:16.607Z,208.79
2023-05-22T11:34:16.578Z,209.56
2023-05-22T11:35:16.624Z,209.06
2023-05-22T11:36:16.584Z,207.16
2023-05-22T11:37:16.578Z,209.75
2023-05-22T11:38:16.661Z,209.59
2023-05-22T11:39:16.612Z,208.59
2023-05-22T11:40:16.641Z,208.77
2023-05-22T11:41:16.555Z,213.16
2023-05-22T11:42:16.522Z,211.32
2023-05-22T11:43:16.532Z,213.21
2023-05-22T11:44:16.622Z,210.49
2023-05-22T11:45:16.504Z,212.32
2023-05-22T11:46:16.556Z,210.14
2023-05-22T11:47:16.517Z,210.91
2023-05-22T11:48:16.622Z,210.45
2023-05-22T11:49:16.513Z,210.57
2023-05-22T11:50:22.480Z,211.71
2023-05-22T11:51:17.503Z,211.90
2023-05-22T11:52:16.471Z,212.18
2023-05-22T11:53:16.475Z,212.73
2023-05-22T11:54:16.474Z,211.63
2023-05-22T11:55:16.468Z,212.90
2023-05-22T11:56:16.469Z,209.97
2023-05-22T11:57:16.424Z,210.48
2023-05-22T11:58:16.433Z,214.06
2023-05-22T11:59:16.474Z,211.83
2023-05-22T12:00:16.619Z,209.79
2023-05-22T12:01:16.586Z,211.17
2023-05-22T12:02:16.621Z,209.83
2023-05-22T12:03:16.778Z,209.45
2023-05-22T12:04:16.869Z,208.45
2023-05-22T12:05:16.899Z,208.81
2023-05-22T12:06:17.409Z,208.23
2023-05-22T12:07:16.907Z,208.12
2023-05-22T12:08:16.995Z,208.57
2023-05-22T12:09:16.997Z,210.61
2023-05-22T12:10:17.114Z,206.25
2023-05-22T12:11:17.190Z,208.55
2023-05-22T12:12:17.206Z,205.12
2023-05-22T12:13:17.305Z,203.36
2023-05-22T12:14:17.313Z,204.74
2023-05-22T12:15:17.464Z,201.35
2023-05-22T12:16:17.514Z,203.09
2023-05-22T12:17:17.466Z,205.94
2023-05-22T12:18:17.479Z,203.48
2023-05-22T12:19:17.589Z,205.47
2023-05-22T12:20:17.650Z,202.63
2023-05-22T12:21:17.670Z,199.32
2023-05-22T12:22:17.779Z,199.37
2023-05-22T12:23:17.773Z,196.33
2023-05-22T12:24:17.819Z,197.12
2023-05-22T12:25:18.024Z,197.49
2023-05-22T12:26:17.952Z,196.91
2023-05-22T12:27:18.007Z,198.02
2023-05-22T12:28:18.070Z,198.91
2023-05-22T12:29:18.126Z,195.12
2023-05-22T12:30:18.172Z,198.09
2023-05-22T12:31:18.172Z,193.61
2023-05-22T12:32:18.422Z,192.21
2023-05-22T12:33:18.345Z,190.87
2023-05-22T12:34:18.386Z,192.48
2023-05-22T12:35:18.397Z,191.45
2023-05-22T12:36:18.501Z,191.11
2023-05-22T12:37:18.735Z,187.19
2023-05-22T12:38:18.541Z,186.69
2023-05-22T12:39:18.732Z,187.76
2023-05-22T12:40:18.729Z,184.21
2023-05-22T12:41:18.736Z,186.29
2023-05-22T12:42:19.552Z,181.44
2023-05-22T12:43:18.836Z,182.08
2023-05-22T12:44:18.906Z,181.69
2023-05-22T12:45:18.948Z,180.12
2023-05-22T12:46:19.029Z,178.09
2023-05-22T12:47:18.998Z,179.42